createdAt,value
2018-03-26T00:00:08.768Z,22.30
2018-03-26T00:02:35.006Z,22.87
2018-03-26T00:05:01.244Z,23.50
2018-03-26T00:07:27.436Z,26.73
2018-03-26T00:09:53.682Z,26.98
2018-03-26T00:12:19.938Z,27.52
2018-03-26T00:14:46.170Z,29.27
2018-03-26T00:17:12.401Z,29.08
2018-03-26T00:19:38.597Z,32.13
2018-03-26T00:22:04.825Z,33.72
2018-03-26T00:24:31.079Z,32.42
2018-03-26T00:26:57.647Z,29.70
2018-03-26T00:29:23.888Z,31.42
2018-03-26T00:31:50.105Z,28.77
2018-03-26T00:34:16.323Z,27.10
2018-03-26T00:36:42.512Z,28.17
2018-03-26T00:39:08.732Z,26.55
2018-03-26T00:41:34.972Z,27.02
2018-03-26T00:44:01.177Z,26.73
2018-03-26T00:46:27.422Z,26.95
2018-03-26T00:48:53.634Z,24.23
2018-03-26T00:51:19.821Z,24.80
2018-03-26T00:53:46.104Z,22.02
2018-03-26T00:56:12.316Z,23.58
2018-03-26T00:58:38.516Z,22.17
2018-03-26T01:01:04.776Z,25.48
2018-03-26T01:03:31.019Z,24.48
2018-03-26T01:05:57.242Z,22.00
2018-03-26T01:08:23.493Z,23.08
2018-03-26T01:10:50.115Z,22.40
2018-03-26T01:13:16.343Z,20.15
2018-03-26T01:15:42.593Z,23.23
2018-03-26T01:18:09.172Z,21.02
2018-03-26T01:20:35.401Z,21.73
2018-03-26T01:23:01.643Z,20.90
2018-03-26T01:25:27.842Z,19.33
2018-03-26T01:27:54.090Z,21.55
2018-03-26T01:30:20.326Z,20.27
2018-03-26T01:32:46.552Z,21.00
2018-03-26T01:35:12.772Z,21.45
2018-03-26T01:37:38.944Z,19.95
2018-03-26T01:40:05.168Z,20.88
2018-03-26T01:42:31.433Z,20.40
2018-03-26T01:44:57.642Z,18.87
2018-03-26T01:47:24.288Z,20.55
2018-03-26T01:49:50.896Z,20.62
2018-03-26T01:52:17.148Z,20.73
2018-03-26T01:54:43.749Z,20.30
2018-03-26T01:57:09.960Z,20.27
2018-03-26T01:59:36.197Z,21.62
2018-03-26T02:02:02.434Z,20.70
2018-03-26T02:04:29.263Z,22.20
2018-03-26T02:06:55.472Z,20.52
2018-03-26T02:09:21.684Z,20.08
2018-03-26T02:11:47.882Z,21.67
2018-03-26T02:14:14.097Z,20.52
2018-03-26T02:16:40.317Z,20.50
2018-03-26T02:19:06.523Z,20.92
2018-03-26T02:21:32.766Z,19.92
2018-03-26T02:23:58.994Z,20.02
2018-03-26T02:26:25.199Z,20.35
2018-03-26T02:28:51.384Z,22.48
2018-03-26T02:31:17.974Z,20.62
2018-03-26T02:33:44.236Z,21.42
2018-03-26T02:36:10.427Z,21.35
2018-03-26T02:38:36.663Z,20.52
2018-03-26T02:41:02.907Z,22.00
2018-03-26T02:43:29.111Z,19.83
2018-03-26T02:45:55.337Z,21.80
2018-03-26T02:48:21.551Z,20.02
2018-03-26T02:50:47.865Z,20.23
2018-03-26T02:53:14.061Z,19.37
2018-03-26T02:55:40.299Z,20.75
2018-03-26T02:58:06.877Z,18.92
2018-03-26T03:00:33.106Z,20.52
2018-03-26T03:02:59.407Z,20.25
2018-03-26T03:05:25.627Z,18.55
2018-03-26T03:07:52.204Z,20.52
2018-03-26T03:10:18.432Z,18.85
2018-03-26T03:12:44.638Z,20.90
2018-03-26T03:15:10.843Z,18.87
2018-03-26T03:17:37.056Z,21.08
2018-03-26T03:20:03.334Z,22.05
2018-03-26T03:22:29.564Z,21.75
2018-03-26T03:24:55.793Z,20.20
2018-03-26T03:27:21.995Z,22.80
2018-03-26T03:29:48.204Z,21.37
2018-03-26T03:32:14.451Z,20.98
2018-03-26T03:34:40.646Z,20.60
2018-03-26T03:37:06.892Z,20.02
2018-03-26T03:39:33.503Z,20.12
2018-03-26T03:41:59.742Z,21.90
2018-03-26T03:44:25.969Z,19.48
2018-03-26T03:46:52.186Z,19.77
2018-03-26T03:49:18.419Z,19.05
2018-03-26T03:51:44.618Z,20.10
2018-03-26T03:54:10.851Z,21.00
2018-03-26T03:56:37.049Z,19.27
2018-03-26T03:59:03.266Z,19.37
2018-03-26T04:01:29.869Z,19.20
2018-03-26T04:03:56.089Z,21.65
2018-03-26T04:06:22.320Z,19.55
2018-03-26T04:08:48.519Z,19.15
2018-03-26T04:11:14.725Z,18.35
2018-03-26T04:13:41.932Z,20.10
2018-03-26T04:16:08.205Z,19.52
2018-03-26T04:18:34.466Z,20.50
2018-03-26T04:21:01.541Z,20.75
2018-03-26T04:23:27.772Z,21.33
2018-03-26T04:25:53.957Z,20.88
2018-03-26T04:28:20.206Z,19.65
2018-03-26T04:30:46.416Z,20.95
2018-03-26T04:33:12.647Z,21.70
2018-03-26T04:35:38.880Z,20.10
2018-03-26T04:38:05.141Z,20.80
2018-03-26T04:40:31.365Z,20.35
2018-03-26T04:42:57.567Z,20.27
2018-03-26T04:45:23.835Z,20.40
2018-03-26T04:47:50.470Z,22.60
2018-03-26T04:50:16.698Z,18.35
2018-03-26T04:52:43.301Z,21.42
2018-03-26T04:55:09.521Z,19.15
2018-03-26T04:57:35.728Z,22.30
2018-03-26T05:00:02.027Z,20.48
2018-03-26T05:02:28.638Z,19.95
2018-03-26T05:04:54.875Z,20.60
2018-03-26T05:07:21.132Z,20.50
2018-03-26T05:09:47.353Z,20.67
2018-03-26T05:12:13.945Z,25.05
2018-03-26T05:14:40.167Z,23.48
2018-03-26T05:17:06.383Z,22.95
2018-03-26T05:19:32.618Z,22.60
2018-03-26T05:21:58.863Z,20.77
2018-03-26T05:24:25.072Z,22.02
2018-03-26T05:26:51.312Z,21.55
2018-03-26T05:29:17.532Z,22.23
2018-03-26T05:31:43.781Z,24.37
2018-03-26T05:34:09.997Z,23.20
2018-03-26T05:36:36.220Z,24.17
2018-03-26T05:39:02.468Z,21.98
2018-03-26T05:41:28.689Z,21.50
2018-03-26T05:43:54.930Z,20.88
2018-03-26T05:46:21.154Z,21.10
2018-03-26T05:48:47.366Z,20.73
2018-03-26T05:51:14.039Z,21.42
2018-03-26T05:53:40.610Z,18.73
2018-03-26T05:56:06.824Z,20.88
2018-03-26T05:58:33.083Z,20.98
2018-03-26T06:00:59.325Z,23.40
2018-03-26T06:03:25.591Z,21.48
2018-03-26T06:05:52.226Z,21.75
2018-03-26T06:08:18.855Z,21.92
2018-03-26T06:10:45.068Z,22.73
2018-03-26T06:13:11.386Z,22.10
2018-03-26T06:15:37.587Z,23.00
2018-03-26T06:18:03.822Z,21.50
2018-03-26T06:20:30.085Z,22.60
2018-03-26T06:22:56.326Z,23.38
2018-03-26T06:25:22.575Z,21.67
2018-03-26T06:27:48.854Z,22.20
2018-03-26T06:30:15.087Z,22.25
2018-03-26T06:32:41.335Z,20.50
2018-03-26T06:35:07.649Z,21.12
2018-03-26T06:37:39.909Z,24.08
2018-03-26T06:40:06.156Z,23.45
2018-03-26T06:42:32.391Z,22.37
2018-03-26T06:44:58.631Z,23.02
2018-03-26T06:47:25.226Z,22.75
2018-03-26T06:49:51.485Z,23.70
2018-03-26T06:52:17.690Z,21.45
2018-03-26T06:54:43.882Z,23.08
2018-03-26T06:57:10.118Z,22.87
2018-03-26T06:59:36.302Z,24.12
2018-03-26T07:02:02.575Z,23.75
2018-03-26T07:04:28.801Z,22.40
2018-03-26T07:06:55.035Z,22.35
2018-03-26T07:09:21.220Z,22.95
2018-03-26T07:11:47.464Z,22.00
2018-03-26T07:14:20.507Z,23.40
2018-03-26T07:16:47.214Z,24.10
2018-03-26T07:19:13.437Z,24.35
2018-03-26T07:21:39.691Z,23.50
2018-03-26T07:24:05.960Z,21.65
2018-03-26T07:26:32.214Z,23.15
2018-03-26T07:28:58.487Z,23.85
2018-03-26T07:31:24.655Z,24.50
2018-03-26T07:33:50.900Z,24.63
2018-03-26T07:36:17.126Z,25.55
2018-03-26T07:38:43.328Z,25.60
2018-03-26T07:41:09.946Z,26.08
2018-03-26T07:43:36.171Z,24.33
2018-03-26T07:46:02.382Z,26.00
2018-03-26T07:48:28.604Z,25.65
2018-03-26T07:50:54.814Z,25.30
2018-03-26T07:53:21.065Z,25.08
2018-03-26T07:55:47.300Z,24.15
2018-03-26T07:58:13.523Z,25.33
2018-03-26T08:00:39.772Z,23.38
2018-03-26T08:03:06.023Z,24.77
2018-03-26T08:05:32.268Z,27.15
2018-03-26T08:07:58.503Z,24.80
2018-03-26T08:10:24.723Z,25.15
2018-03-26T08:12:50.949Z,27.70
2018-03-26T08:15:17.213Z,26.77
2018-03-26T08:17:43.481Z,26.87
2018-03-26T08:20:09.695Z,28.02
2018-03-26T08:22:35.926Z,26.70
2018-03-26T08:25:02.236Z,27.87
2018-03-26T08:27:29.287Z,25.95
2018-03-26T08:29:55.535Z,27.70
2018-03-26T08:32:21.780Z,27.33
2018-03-26T08:34:47.979Z,26.17
2018-03-26T08:37:14.882Z,25.27
2018-03-26T08:39:41.129Z,27.85
2018-03-26T08:42:07.365Z,26.12
2018-03-26T08:44:33.622Z,25.35
2018-03-26T08:46:59.839Z,27.95
2018-03-26T08:49:26.063Z,27.23
2018-03-26T08:51:52.281Z,27.55
2018-03-26T08:54:18.554Z,25.80
2018-03-26T08:56:45.155Z,26.02
2018-03-26T08:59:11.386Z,25.80
2018-03-26T09:01:37.618Z,28.67
2018-03-26T09:04:03.893Z,28.42
2018-03-26T09:06:30.089Z,27.08
2018-03-26T09:08:56.758Z,23.12
2018-03-26T09:11:23.020Z,25.70
2018-03-26T09:13:49.212Z,26.85
2018-03-26T09:16:15.420Z,26.40
2018-03-26T09:18:41.682Z,26.73
2018-03-26T09:21:07.966Z,27.15
2018-03-26T09:23:34.173Z,27.67
2018-03-26T09:26:00.454Z,26.65
2018-03-26T09:28:26.671Z,25.70
2018-03-26T09:30:53.646Z,25.10
2018-03-26T09:33:19.874Z,27.17
2018-03-26T09:35:52.992Z,27.20
2018-03-26T09:38:19.223Z,26.98
2018-03-26T09:40:46.460Z,25.80
2018-03-26T09:43:13.660Z,28.00
2018-03-26T09:45:40.489Z,25.20
2018-03-26T09:48:07.717Z,26.62
2018-03-26T09:50:33.953Z,26.15
2018-03-26T09:53:01.252Z,26.92
2018-03-26T09:55:27.953Z,25.98
2018-03-26T09:57:54.152Z,24.70
2018-03-26T10:00:36.435Z,25.85
2018-03-26T10:03:02.691Z,26.83
2018-03-26T10:05:29.460Z,26.55
2018-03-26T10:07:56.090Z,24.50
2018-03-26T10:10:29.158Z,25.58
2018-03-26T10:12:55.418Z,26.55
2018-03-26T10:15:21.684Z,25.90
2018-03-26T10:17:47.937Z,25.90
2018-03-26T10:20:14.169Z,23.57
2018-03-26T10:22:40.402Z,26.07
2018-03-26T10:25:06.654Z,24.47
2018-03-26T10:27:32.845Z,25.07
2018-03-26T10:29:59.055Z,25.67
2018-03-26T10:32:25.253Z,25.30
2018-03-26T10:34:51.521Z,26.20
2018-03-26T10:37:17.771Z,25.10
2018-03-26T10:39:44.042Z,27.10
2018-03-26T10:42:10.663Z,25.83
2018-03-26T10:44:36.956Z,25.60
2018-03-26T10:47:03.220Z,28.17
2018-03-26T10:49:29.446Z,27.43
2018-03-26T10:51:55.713Z,26.47
2018-03-26T10:54:22.914Z,28.70
2018-03-26T10:56:49.143Z,26.60
2018-03-26T10:59:15.382Z,29.50
2018-03-26T11:01:41.600Z,29.50
2018-03-26T11:04:07.850Z,25.87
2018-03-26T11:06:34.083Z,26.47
2018-03-26T11:09:00.350Z,27.47
2018-03-26T11:11:26.618Z,27.33
2018-03-26T11:13:53.148Z,28.60
2018-03-26T11:16:19.346Z,27.93
2018-03-26T11:18:46.399Z,26.47
2018-03-26T11:21:13.278Z,28.13
2018-03-26T11:23:39.567Z,27.80
2018-03-26T11:26:05.812Z,28.70
2018-03-26T11:28:39.194Z,28.80
2018-03-26T11:31:05.425Z,28.83
2018-03-26T11:33:32.355Z,29.13
2018-03-26T11:35:58.599Z,27.67
2018-03-26T11:38:24.851Z,29.10
2018-03-26T11:40:51.090Z,28.10
2018-03-26T11:43:17.358Z,26.50
2018-03-26T11:45:43.588Z,30.57
2018-03-26T11:48:09.798Z,28.10
2018-03-26T11:50:36.039Z,30.80
2018-03-26T11:53:02.245Z,31.17
2018-03-26T11:55:28.867Z,30.17
2018-03-26T11:57:55.122Z,30.00
2018-03-26T12:00:21.415Z,29.20
2018-03-26T12:02:47.632Z,29.47
2018-03-26T12:05:13.895Z,29.50
2018-03-26T12:07:40.926Z,30.70
2018-03-26T12:10:07.534Z,30.27
2018-03-26T12:12:33.776Z,31.30
2018-03-26T12:15:00.034Z,30.30
2018-03-26T12:17:26.665Z,32.00
2018-03-26T12:33:18.251Z,30.63
2018-03-26T12:35:58.623Z,28.80
2018-03-26T12:38:24.894Z,27.67
2018-03-26T12:40:52.804Z,29.10
2018-03-26T12:43:19.011Z,27.98
2018-03-26T12:45:57.406Z,28.67
2018-03-26T12:48:23.650Z,31.80
2018-03-26T12:51:02.135Z,29.43
2018-03-26T12:53:28.418Z,28.27
2018-03-26T12:55:54.667Z,29.70
2018-03-26T12:58:33.057Z,29.37
2018-03-26T13:01:11.454Z,27.60
2018-03-26T13:03:38.018Z,27.70
2018-03-26T13:06:04.253Z,28.80
2018-03-26T13:08:30.904Z,28.50
2018-03-26T13:10:57.566Z,28.80
2018-03-26T13:13:24.644Z,29.30
2018-03-26T13:15:50.899Z,28.53
2018-03-26T13:18:17.917Z,27.73
2018-03-26T13:20:44.185Z,25.93
2018-03-26T13:23:10.409Z,28.77
2018-03-26T13:25:36.650Z,29.97
2018-03-26T13:28:02.924Z,30.52
2018-03-26T13:30:29.186Z,29.52
2018-03-26T13:32:55.809Z,29.00
2018-03-26T13:35:22.066Z,28.60
2018-03-26T13:37:48.677Z,27.67
2018-03-26T13:40:14.971Z,29.20
2018-03-26T13:42:41.261Z,29.05
2018-03-26T13:45:07.497Z,28.12
2018-03-26T13:47:33.776Z,28.70
2018-03-26T13:50:00.040Z,27.60
2018-03-26T13:52:26.271Z,31.45
2018-03-26T13:54:52.893Z,31.10
2018-03-26T13:57:19.125Z,30.83
2018-03-26T13:59:45.408Z,31.60
2018-03-26T14:02:11.663Z,30.00
2018-03-26T14:04:37.934Z,29.37
2018-03-26T14:07:04.147Z,29.40
2018-03-26T14:09:42.649Z,28.52
2018-03-26T14:12:20.999Z,32.08
2018-03-26T14:14:59.435Z,28.52
2018-03-26T14:17:37.906Z,29.98
2018-03-26T14:20:04.541Z,30.70
2018-03-26T14:22:30.835Z,30.12
2018-03-26T14:24:57.067Z,31.05
2018-03-26T14:27:23.311Z,30.92
2018-03-26T14:29:49.498Z,32.30
2018-03-26T14:32:15.741Z,32.03
2018-03-26T14:35:08.141Z,33.70
2018-03-26T14:37:34.742Z,29.58
2018-03-26T14:40:00.990Z,32.20
2018-03-26T14:42:27.242Z,31.00
2018-03-26T14:44:53.510Z,32.22
2018-03-26T14:47:19.731Z,30.73
2018-03-26T14:49:46.055Z,29.25
2018-03-26T14:52:12.636Z,31.50
2018-03-26T14:54:38.875Z,31.55
2018-03-26T14:57:05.499Z,32.65
2018-03-26T14:59:31.777Z,32.97
2018-03-26T15:01:58.061Z,30.25
2018-03-26T15:04:24.286Z,31.87
2018-03-26T15:06:50.800Z,31.40
2018-03-26T15:09:17.036Z,32.50
2018-03-26T15:11:43.250Z,29.92
2018-03-26T15:14:09.551Z,32.30
2018-03-26T15:16:35.826Z,32.22
2018-03-26T15:19:02.058Z,31.90
2018-03-26T15:21:28.302Z,32.15
2018-03-26T15:23:54.546Z,32.55
2018-03-26T15:26:20.784Z,32.42
2018-03-26T15:28:48.065Z,29.77
2018-03-26T15:31:14.294Z,29.50
2018-03-26T15:33:40.556Z,29.85
2018-03-26T15:36:06.765Z,33.38
2018-03-26T15:38:33.005Z,32.75
2018-03-26T15:40:59.239Z,33.55
2018-03-26T15:43:25.495Z,29.40
2018-03-26T15:45:52.112Z,34.38
2018-03-26T15:48:18.769Z,33.08
2018-03-26T15:50:45.006Z,33.40
2018-03-26T15:53:11.621Z,33.72
2018-03-26T15:55:37.921Z,32.25
2018-03-26T15:58:04.165Z,34.30
2018-03-26T16:00:30.389Z,32.28
2018-03-26T16:03:02.710Z,29.17
2018-03-26T16:05:28.964Z,29.35
2018-03-26T16:07:55.195Z,27.60
2018-03-26T16:10:21.441Z,26.42
2018-03-26T16:12:48.589Z,24.15
2018-03-26T16:15:14.859Z,22.62
2018-03-26T16:17:41.537Z,25.90
2018-03-26T16:20:07.806Z,25.62
2018-03-26T16:22:34.061Z,24.92
2018-03-26T16:25:00.311Z,25.58
2018-03-26T16:27:26.502Z,26.42
2018-03-26T16:29:52.748Z,29.87
2018-03-26T16:32:18.993Z,27.95
2018-03-26T16:34:45.228Z,28.48
2018-03-26T16:37:11.487Z,27.33
2018-03-26T16:39:37.678Z,27.50
2018-03-26T16:42:16.337Z,25.27
2018-03-26T16:44:42.619Z,26.62
2018-03-26T16:47:08.895Z,26.73
2018-03-26T16:49:35.142Z,25.17
2018-03-26T16:52:01.377Z,22.10
2018-03-26T16:54:28.453Z,22.27
2018-03-26T16:56:54.706Z,23.27
2018-03-26T16:59:20.917Z,25.10
2018-03-26T17:01:47.507Z,24.35
2018-03-26T17:04:14.658Z,25.67
2018-03-26T17:06:40.880Z,23.92
2018-03-26T17:09:07.166Z,25.77
2018-03-26T17:11:33.409Z,24.77
2018-03-26T17:13:59.642Z,24.67
2018-03-26T17:16:25.916Z,25.50
2018-03-26T17:18:52.562Z,25.62
2018-03-26T17:21:19.156Z,25.65
2018-03-26T17:23:45.397Z,24.65
2018-03-26T17:26:11.612Z,26.37
2018-03-26T17:28:37.805Z,26.02
2018-03-26T17:31:04.045Z,26.27
2018-03-26T17:33:30.346Z,27.58
2018-03-26T17:35:56.575Z,26.95
2018-03-26T17:38:22.837Z,27.25
2018-03-26T17:40:49.051Z,27.92
2018-03-26T17:43:15.280Z,33.00
2018-03-26T17:45:41.572Z,38.75
2018-03-26T17:48:07.817Z,32.38
2018-03-26T17:50:34.103Z,40.78
2018-03-26T17:53:00.412Z,36.40
2018-03-26T17:55:27.695Z,40.08
2018-03-26T17:57:53.914Z,43.72
2018-03-26T18:00:20.217Z,47.80
2018-03-26T18:02:46.488Z,37.05
2018-03-26T18:05:13.150Z,41.25
2018-03-26T18:07:39.393Z,40.70
2018-03-26T18:10:05.676Z,44.90
2018-03-26T18:12:31.915Z,43.08
2018-03-26T18:14:58.566Z,41.35
2018-03-26T18:17:24.859Z,42.45
2018-03-26T18:19:51.120Z,40.60
2018-03-26T18:22:17.741Z,50.12
2018-03-26T18:24:44.008Z,62.50
2018-03-26T18:27:10.217Z,53.05
2018-03-26T18:29:36.870Z,47.45
2018-03-26T18:32:03.112Z,43.38
2018-03-26T18:34:29.413Z,52.45
2018-03-26T18:36:55.685Z,46.78
2018-03-26T18:39:21.928Z,34.00
2018-03-26T18:41:48.159Z,33.00
2018-03-26T18:44:14.725Z,32.25
2018-03-26T18:46:40.975Z,32.00
2018-03-26T18:49:07.301Z,30.20
2018-03-26T18:51:33.541Z,32.75
2018-03-26T18:53:59.753Z,34.30
2018-03-26T18:56:25.999Z,34.38
2018-03-26T18:58:52.280Z,32.50
2018-03-26T19:01:18.561Z,34.33
2018-03-26T19:03:44.861Z,33.88
2018-03-26T19:06:11.603Z,35.70
2018-03-26T19:08:37.887Z,33.15
2018-03-26T19:11:04.193Z,33.70
2018-03-26T19:13:30.484Z,30.40
2018-03-26T19:15:56.768Z,32.10
2018-03-26T19:18:23.071Z,31.40
2018-03-26T19:20:49.470Z,32.08
2018-03-26T19:23:16.145Z,32.03
2018-03-26T19:25:42.434Z,35.88
2018-03-26T19:28:08.693Z,34.13
2018-03-26T19:30:35.000Z,33.65
2018-03-26T19:33:01.637Z,34.22
2018-03-26T19:35:28.287Z,34.10
2018-03-26T19:37:54.973Z,34.33
2018-03-26T19:40:21.274Z,39.22
2018-03-26T19:42:47.538Z,35.65
2018-03-26T19:45:13.840Z,34.65
2018-03-26T19:47:40.117Z,35.80
2018-03-26T19:50:06.425Z,34.67
2018-03-26T19:52:32.708Z,35.65
2018-03-26T19:54:58.899Z,36.28
2018-03-26T19:57:25.137Z,36.55
2018-03-26T19:59:51.436Z,36.90
2018-03-26T20:02:17.925Z,36.15
2018-03-26T20:04:44.219Z,37.05
2018-03-26T20:07:10.511Z,35.90
2018-03-26T20:09:36.852Z,36.00
2018-03-26T20:12:03.169Z,35.13
2018-03-26T20:14:29.475Z,36.15
2018-03-26T20:16:55.735Z,36.55
2018-03-26T20:19:21.998Z,37.20
2018-03-26T20:21:48.273Z,38.17
2018-03-26T20:24:14.514Z,35.78
2018-03-26T20:26:40.770Z,37.90
2018-03-26T20:29:07.053Z,35.20
2018-03-26T20:31:33.275Z,38.55
2018-03-26T20:33:59.493Z,37.58
2018-03-26T20:36:25.782Z,36.95
2018-03-26T20:38:52.068Z,36.75
2018-03-26T20:41:18.309Z,37.70
2018-03-26T20:43:44.568Z,36.90
2018-03-26T20:46:10.813Z,36.47
2018-03-26T20:48:37.063Z,40.90
2018-03-26T20:51:03.319Z,38.15
2018-03-26T20:53:29.561Z,37.50
2018-03-26T20:55:55.778Z,37.45
2018-03-26T20:58:22.042Z,37.90
2018-03-26T21:00:48.305Z,38.15
2018-03-26T21:03:14.930Z,37.22
2018-03-26T21:05:41.540Z,38.42
2018-03-26T21:08:07.820Z,37.28
2018-03-26T21:10:34.106Z,38.75
2018-03-26T21:13:00.348Z,39.28
2018-03-26T21:15:26.616Z,38.83
2018-03-26T21:17:52.904Z,38.08
2018-03-26T21:20:19.172Z,38.78
2018-03-26T21:22:45.427Z,39.75
2018-03-26T21:25:11.690Z,37.95
2018-03-26T21:27:37.927Z,39.65
2018-03-26T21:30:04.164Z,37.60
2018-03-26T21:32:30.466Z,38.78
2018-03-26T21:34:56.666Z,39.92
2018-03-26T21:37:22.913Z,38.97
2018-03-26T21:39:49.266Z,38.55
2018-03-26T21:42:15.488Z,37.88
2018-03-26T21:44:41.748Z,35.13
2018-03-26T21:47:08.411Z,35.40
2018-03-26T21:49:34.669Z,39.90
2018-03-26T21:52:00.895Z,38.90
2018-03-26T21:54:27.566Z,37.42
2018-03-26T21:56:54.150Z,37.55
2018-03-26T21:59:20.369Z,36.42
2018-03-26T22:01:46.649Z,38.03
2018-03-26T22:04:12.924Z,42.15
2018-03-26T22:06:39.138Z,39.92
2018-03-26T22:09:05.398Z,39.95
2018-03-26T22:11:31.636Z,37.38
2018-03-26T22:13:57.889Z,37.25
2018-03-26T22:16:24.136Z,36.20
2018-03-26T22:18:50.357Z,37.60
2018-03-26T22:21:16.647Z,37.83
2018-03-26T22:23:42.892Z,40.25
2018-03-26T22:26:09.110Z,37.50
2018-03-26T22:28:35.368Z,40.08
2018-03-26T22:31:01.608Z,38.45
2018-03-26T22:33:28.196Z,39.35
2018-03-26T22:35:54.408Z,37.53
2018-03-26T22:38:20.652Z,39.00
2018-03-26T22:40:46.885Z,37.85
2018-03-26T22:43:13.121Z,38.13
2018-03-26T22:45:39.837Z,36.45
2018-03-26T22:48:06.634Z,39.22
2018-03-26T22:50:33.232Z,37.63
2018-03-26T22:52:59.536Z,39.00
2018-03-26T22:55:25.727Z,38.35
2018-03-26T22:57:52.348Z,38.10
2018-03-26T23:00:18.554Z,39.65
2018-03-26T23:02:44.833Z,40.33
2018-03-26T23:05:11.462Z,40.05
2018-03-26T23:07:38.074Z,40.75
2018-03-26T23:10:04.350Z,41.65
2018-03-26T23:12:30.611Z,39.80
2018-03-26T23:14:56.874Z,43.40
2018-03-26T23:17:23.095Z,44.53
2018-03-26T23:19:49.375Z,42.83
2018-03-26T23:22:27.737Z,41.70
2018-03-26T23:24:53.965Z,40.17
2018-03-26T23:27:20.182Z,42.08
2018-03-26T23:29:46.403Z,41.92
2018-03-26T23:32:12.993Z,42.10
2018-03-26T23:34:39.239Z,43.55
2018-03-26T23:37:05.491Z,45.28
2018-03-26T23:39:31.717Z,39.10
2018-03-26T23:41:57.979Z,39.55
2018-03-26T23:44:24.200Z,39.05
2018-03-26T23:46:50.438Z,41.00
2018-03-26T23:49:17.019Z,41.42
2018-03-26T23:51:43.220Z,40.35
2018-03-26T23:54:09.439Z,37.15
2018-03-26T23:56:35.669Z,40.83
2018-03-26T23:59:01.935Z,36.72
